Time;durP1;ratioP1;P1;durP2;ratioP2;P2;SDS_P1;SDS_P2;PMS_P1;PMS_P2;Temp;Humidity;BMP_temperature;BMP_pressure;BME280_temperature;BME280_humidity;BME280_pressure;Samples;Min_cycle;Max_cycle;Signal;HPM_P1;HPM_P2
2021/06/30 00:02:21;;;;;;;0.93;0.85;;;17.70;77.60;;;;;;4916944;29;20087;-88
2021/06/30 00:04:47;;;;;;;0.80;0.75;;;17.70;77.70;;;;;;4916159;29;20020;-89
2021/06/30 00:07:12;;;;;;;0.80;0.80;;;17.70;77.80;;;;;;4914593;29;20043;-90
2021/06/30 00:09:39;;;;;;;1.02;0.93;;;17.80;77.90;;;;;;4916340;29;20036;-88
2021/06/30 00:12:05;;;;;;;0.90;0.90;;;17.70;77.90;;;;;;4920020;29;20028;-88
2021/06/30 00:14:31;;;;;;;1.23;0.90;;;17.70;77.90;;;;;;4916526;29;20032;-88
2021/06/30 00:16:57;;;;;;;1.00;0.88;;;17.60;78.00;;;;;;4916678;29;20771;-90
2021/06/30 00:19:26;;;;;;;0.80;0.80;;;17.60;78.20;;;;;;4916496;29;20444;-89
2021/06/30 00:21:52;;;;;;;1.13;0.80;;;17.50;78.30;;;;;;4917024;29;20075;-87
2021/06/30 00:24:18;;;;;;;0.80;0.80;;;17.50;78.40;;;;;;4916211;29;20028;-91
2021/06/30 00:26:43;;;;;;;1.33;0.70;;;17.50;78.50;;;;;;4917556;29;20032;-90
2021/06/30 00:29:09;;;;;;;0.60;0.60;;;17.50;78.50;;;;;;4916265;29;20044;-90
2021/06/30 00:31:36;;;;;;;0.80;0.68;;;17.50;78.40;;;;;;4915846;29;20027;-90
2021/06/30 00:34:03;;;;;;;1.50;0.90;;;17.50;78.40;;;;;;4917478;29;20050;-90
2021/06/30 00:36:34;;;;;;;1.17;0.80;;;17.50;78.40;;;;;;4915694;29;20119;-90
2021/06/30 00:39:02;;;;;;;0.80;0.80;;;17.50;78.50;;;;;;4915649;29;20020;-88
2021/06/30 00:41:27;;;;;;;0.98;0.70;;;17.50;78.50;;;;;;4916464;29;20021;-88
2021/06/30 00:43:53;;;;;;;0.60;0.60;;;17.50;78.60;;;;;;4915409;29;20125;-88
2021/06/30 00:46:33;;;;;;;0.70;0.70;;;17.40;78.60;;;;;;4915637;29;20020;-89
2021/06/30 00:49:00;;;;;;;1.50;0.70;;;17.40;78.70;;;;;;4915806;29;20039;-88
2021/06/30 00:51:27;;;;;;;0.80;0.65;;;17.40;78.70;;;;;;4913546;29;20051;-87
2021/06/30 00:53:53;;;;;;;0.70;0.70;;;17.40;78.80;;;;;;4915403;29;20079;-89
2021/06/30 00:56:23;;;;;;;0.82;0.80;;;17.30;78.70;;;;;;4922586;29;20410;-88
2021/06/30 00:58:51;;;;;;;1.20;0.63;;;17.40;78.80;;;;;;4933515;29;20019;-88
2021/06/30 01:01:18;;;;;;;0.68;0.68;;;17.40;78.80;;;;;;4932474;29;20470;-88
2021/06/30 01:03:44;;;;;;;1.55;0.80;;;17.40;78.70;;;;;;4915052;29;20024;-88
2021/06/30 01:06:09;;;;;;;0.90;0.88;;;17.40;78.70;;;;;;4918195;29;20142;-90
2021/06/30 01:08:35;;;;;;;1.27;0.60;;;17.40;78.60;;;;;;4925085;29;20070;-89
2021/06/30 01:11:01;;;;;;;1.05;0.68;;;17.40;78.50;;;;;;4917715;29;20119;-88
2021/06/30 01:13:26;;;;;;;0.70;0.70;;;17.40;78.60;;;;;;4917149;29;20496;-89
2021/06/30 01:15:55;;;;;;;1.50;0.82;;;17.40;78.60;;;;;;4902569;29;20107;-88
2021/06/30 01:18:26;;;;;;;0.70;0.70;;;17.40;78.60;;;;;;4915158;29;20028;-90
2021/06/30 01:20:53;;;;;;;0.52;0.52;;;17.40;78.50;;;;;;4915472;29;20643;-89
2021/06/30 01:23:20;;;;;;;0.88;0.75;;;17.50;78.50;;;;;;4931115;29;20098;-90
2021/06/30 01:25:46;;;;;;;0.63;0.63;;;17.50;78.40;;;;;;4935529;29;20038;-90
2021/06/30 01:28:13;;;;;;;0.77;0.65;;;17.50;78.50;;;;;;4935320;29;20487;-91
2021/06/30 01:30:40;;;;;;;0.57;0.57;;;17.40;78.40;;;;;;4936664;29;20031;-90
2021/06/30 01:33:07;;;;;;;1.77;0.77;;;17.40;78.30;;;;;;4936050;29;20077;-92
2021/06/30 01:35:32;;;;;;;0.90;0.90;;;17.50;78.40;;;;;;4935268;29;20043;-90
2021/06/30 01:37:58;;;;;;;1.58;0.90;;;17.40;78.40;;;;;;4935872;29;20128;-90
2021/06/30 01:40:23;;;;;;;0.60;0.60;;;17.40;78.50;;;;;;4935653;29;20026;-92
2021/06/30 01:42:51;;;;;;;0.80;0.80;;;17.50;78.50;;;;;;4935318;29;20028;-91
2021/06/30 01:45:17;;;;;;;0.73;0.73;;;17.50;78.30;;;;;;4933182;29;20469;-90
2021/06/30 01:47:42;;;;;;;2.20;1.00;;;17.50;78.40;;;;;;4916647;29;20040;-90
2021/06/30 01:50:09;;;;;;;0.82;0.82;;;17.50;78.40;;;;;;4923875;29;20102;-90
2021/06/30 01:52:35;;;;;;;0.80;0.75;;;17.40;78.40;;;;;;4933839;29;20024;-91
2021/06/30 01:55:02;;;;;;;0.85;0.80;;;17.40;78.40;;;;;;4935345;29;20038;-91
2021/06/30 01:57:28;;;;;;;0.70;0.70;;;17.40;78.50;;;;;;4934089;29;20031;-88
2021/06/30 01:59:53;;;;;;;0.93;0.90;;;17.40;78.50;;;;;;4932695;29;20027;-87
2021/06/30 02:02:19;;;;;;;0.95;0.85;;;17.30;78.60;;;;;;4934357;29;20083;-90
2021/06/30 02:04:59;;;;;;;0.70;0.70;;;17.20;78.60;;;;;;4934468;29;20412;-89
2021/06/30 02:07:25;;;;;;;0.80;0.80;;;17.20;78.70;;;;;;4933154;29;20076;-89
2021/06/30 02:09:50;;;;;;;0.82;0.70;;;17.20;78.70;;;;;;4934253;29;20475;-91
2021/06/30 02:12:16;;;;;;;1.00;0.90;;;17.20;78.70;;;;;;4934415;29;20152;-90
2021/06/30 02:14:41;;;;;;;1.02;0.80;;;17.20;78.70;;;;;;4934911;29;20024;-90
2021/06/30 02:17:07;;;;;;;1.25;0.80;;;17.30;78.70;;;;;;4934132;29;20032;-91
2021/06/30 02:19:33;;;;;;;0.80;0.80;;;17.20;78.70;;;;;;4935266;29;20471;-90
2021/06/30 02:21:58;;;;;;;0.93;0.70;;;17.20;78.70;;;;;;4934570;29;20031;-91
2021/06/30 02:24:24;;;;;;;0.80;0.80;;;17.20;78.80;;;;;;4935072;29;20061;-90
2021/06/30 02:26:49;;;;;;;0.60;0.60;;;17.20;78.90;;;;;;4934788;29;20020;-91
2021/06/30 02:29:15;;;;;;;1.33;0.85;;;17.20;79.00;;;;;;4934690;29;20043;-90
2021/06/30 02:31:40;;;;;;;0.90;0.68;;;17.20;79.10;;;;;;4934813;29;20154;-92
2021/06/30 02:34:06;;;;;;;0.80;0.80;;;17.20;79.20;;;;;;4935060;29;20068;-91
2021/06/30 02:36:31;;;;;;;0.80;0.80;;;17.10;79.20;;;;;;4934064;29;20024;-87
2021/06/30 02:38:58;;;;;;;1.23;0.70;;;17.00;79.40;;;;;;4932113;29;20031;-88
2021/06/30 02:41:24;;;;;;;1.00;0.63;;;16.90;79.50;;;;;;4935725;29;20111;-88
2021/06/30 02:43:50;;;;;;;0.70;0.70;;;16.90;79.50;;;;;;4937845;29;20491;-91
2021/06/30 02:46:16;;;;;;;0.60;0.60;;;16.90;79.40;;;;;;4938382;29;20484;-90
2021/06/30 02:48:41;;;;;;;0.80;0.80;;;17.00;79.40;;;;;;4938303;29;20122;-90
2021/06/30 02:51:07;;;;;;;0.77;0.77;;;17.00;79.90;;;;;;4937819;29;20035;-91
2021/06/30 02:53:32;;;;;;;0.60;0.60;;;17.00;79.40;;;;;;4936629;29;20360;-91
2021/06/30 02:56:01;;;;;;;0.70;0.70;;;17.00;79.40;;;;;;4918713;29;20028;-89
2021/06/30 02:58:27;;;;;;;0.57;0.57;;;17.00;79.30;;;;;;4917378;29;20424;-90
2021/06/30 03:00:52;;;;;;;0.60;0.60;;;17.10;79.30;;;;;;4928528;29;20023;-90
2021/06/30 03:03:18;;;;;;;0.70;0.70;;;17.10;79.30;;;;;;4938147;29;20031;-92
2021/06/30 03:05:46;;;;;;;0.65;0.65;;;17.10;79.20;;;;;;4937593;29;20047;-93
2021/06/30 03:08:12;;;;;;;0.80;0.80;;;17.00;79.20;;;;;;4937697;29;20040;-94
2021/06/30 03:10:38;;;;;;;0.70;0.70;;;17.10;79.20;;;;;;4938577;29;20078;-94
2021/06/30 03:13:03;;;;;;;0.77;0.77;;;17.00;79.10;;;;;;4936960;29;20383;-94
2021/06/30 03:15:29;;;;;;;0.80;0.80;;;17.00;79.20;;;;;;4932293;29;20513;-91
2021/06/30 03:17:54;;;;;;;0.80;0.80;;;16.90;79.30;;;;;;4918277;29;20028;-92
2021/06/30 03:20:20;;;;;;;0.70;0.70;;;16.90;79.40;;;;;;4918679;29;20032;-92
2021/06/30 03:22:45;;;;;;;1.20;0.70;;;16.90;79.50;;;;;;4917476;29;20020;-92
2021/06/30 03:25:13;;;;;;;0.80;0.80;;;16.90;79.50;;;;;;4917354;29;20032;-92
2021/06/30 03:27:39;;;;;;;0.70;0.70;;;16.90;79.70;;;;;;4917367;29;20047;-90
2021/06/30 03:30:09;;;;;;;0.68;0.60;;;17.00;79.70;;;;;;4918780;29;20091;-93
2021/06/30 03:32:35;;;;;;;0.65;0.65;;;17.00;79.60;;;;;;4918162;29;20024;-91
2021/06/30 03:35:02;;;;;;;0.60;0.60;;;17.00;79.50;;;;;;4918306;29;20042;-91
2021/06/30 03:37:28;;;;;;;0.65;0.65;;;17.00;79.60;;;;;;4918497;29;20027;-92
2021/06/30 03:39:53;;;;;;;0.98;0.90;;;16.90;79.50;;;;;;4917326;29;20028;-91
2021/06/30 03:42:19;;;;;;;0.80;0.80;;;16.90;79.60;;;;;;4917121;29;20025;-91
2021/06/30 03:44:47;;;;;;;0.65;0.65;;;16.90;79.70;;;;;;4919897;29;20012;-92
2021/06/30 03:47:13;;;;;;;0.82;0.70;;;16.80;79.70;;;;;;4917272;29;20024;-92
2021/06/30 03:49:38;;;;;;;0.73;0.70;;;16.80;79.90;;;;;;4917800;29;20114;-91
2021/06/30 03:52:05;;;;;;;0.80;0.80;;;16.80;79.90;;;;;;4917588;29;20039;-90
2021/06/30 03:54:31;;;;;;;0.70;0.70;;;16.80;79.90;;;;;;4916909;29;20028;-91
2021/06/30 03:57:35;;;;;;;0.80;0.80;;;16.80;79.90;;;;;;4917290;29;20222;-92
2021/06/30 04:00:05;;;;;;;1.73;0.80;;;16.80;80.00;;;;;;4918291;29;20047;-91
2021/06/30 04:02:31;;;;;;;1.17;1.08;;;16.80;80.00;;;;;;4915932;29;20236;-90
2021/06/30 04:04:56;;;;;;;0.70;0.70;;;16.70;80.00;;;;;;4918158;29;20052;-91
2021/06/30 04:07:22;;;;;;;0.80;0.80;;;16.70;80.10;;;;;;4918120;29;20060;-90
2021/06/30 04:09:47;;;;;;;2.13;0.90;;;16.70;80.10;;;;;;4917904;29;20028;-91
2021/06/30 04:12:13;;;;;;;0.80;0.80;;;16.70;80.20;;;;;;4917741;29;20031;-90
2021/06/30 04:14:39;;;;;;;0.77;0.77;;;16.70;80.20;;;;;;4930032;29;20019;-92
2021/06/30 04:17:04;;;;;;;1.27;0.80;;;16.70;80.20;;;;;;4936818;29;20436;-90
2021/06/30 04:19:30;;;;;;;1.20;1.10;;;16.70;80.10;;;;;;4930078;29;20440;-92
2021/06/30 04:21:56;;;;;;;0.88;0.88;;;16.70;80.10;;;;;;4924888;29;20363;-91
2021/06/30 04:24:22;;;;;;;1.00;0.90;;;16.70;80.30;;;;;;4918691;29;20503;-94
2021/06/30 04:26:47;;;;;;;1.25;0.95;;;16.70;80.20;;;;;;4917316;29;20020;-93
2021/06/30 04:29:13;;;;;;;1.35;1.00;;;16.70;80.20;;;;;;4897793;29;20112;-94
2021/06/30 04:31:39;;;;;;;1.35;1.23;;;16.60;80.10;;;;;;4897427;29;20020;-92
2021/06/30 04:34:05;;;;;;;1.30;1.20;;;16.60;80.20;;;;;;4923922;29;20464;-91
2021/06/30 04:36:30;;;;;;;1.42;1.10;;;16.60;80.40;;;;;;4935400;29;20023;-93
2021/06/30 04:38:59;;;;;;;1.13;1.02;;;16.60;80.50;;;;;;4936482;29;20030;-92
2021/06/30 04:41:25;;;;;;;1.23;1.10;;;16.50;80.50;;;;;;4936854;29;20030;-91
2021/06/30 04:43:50;;;;;;;1.20;1.10;;;16.50;80.40;;;;;;4916634;29;20499;-91
2021/06/30 04:46:16;;;;;;;1.55;1.23;;;16.50;80.30;;;;;;4917438;29;20467;-92
2021/06/30 04:48:41;;;;;;;1.75;1.35;;;16.50;80.90;;;;;;4917480;29;20036;-93
2021/06/30 04:51:07;;;;;;;1.20;1.10;;;16.50;80.40;;;;;;4917410;29;20031;-92
2021/06/30 04:53:33;;;;;;;1.30;1.20;;;16.60;80.40;;;;;;4917441;29;20512;-93
2021/06/30 04:55:59;;;;;;;1.20;1.10;;;16.60;80.20;;;;;;4917793;29;20028;-95
2021/06/30 04:58:25;;;;;;;1.55;1.27;;;16.60;80.10;;;;;;4918045;29;20024;-95
2021/06/30 05:00:56;;;;;;;1.30;1.20;;;16.60;80.10;;;;;;4916157;29;20028;-95
2021/06/30 05:03:29;;;;;;;1.65;1.27;;;16.60;80.20;;;;;;4916643;29;20360;-90
2021/06/30 05:05:55;;;;;;;1.40;1.30;;;16.50;80.20;;;;;;4916190;29;20123;-91
2021/06/30 05:08:24;;;;;;;1.60;1.50;;;16.50;80.30;;;;;;4916986;29;20091;-93
2021/06/30 05:10:52;;;;;;;1.80;1.40;;;16.40;80.60;;;;;;4930104;29;20099;-92
2021/06/30 05:13:18;;;;;;;1.30;1.20;;;16.40;80.70;;;;;;4924382;29;20020;-93
2021/06/30 05:15:44;;;;;;;1.80;1.42;;;16.50;80.60;;;;;;4916731;29;20035;-93
2021/06/30 05:18:10;;;;;;;1.98;1.60;;;16.50;80.50;;;;;;4916822;29;20062;-94
2021/06/30 05:20:36;;;;;;;1.50;1.40;;;16.40;80.70;;;;;;4916642;29;20031;-94
2021/06/30 05:23:02;;;;;;;1.58;1.30;;;16.40;80.80;;;;;;4915597;29;20032;-93
2021/06/30 05:25:27;;;;;;;1.40;1.30;;;16.40;80.80;;;;;;4917044;29;20031;-94
2021/06/30 05:27:53;;;;;;;1.75;1.45;;;16.40;80.70;;;;;;4913883;29;20054;-93
2021/06/30 05:30:18;;;;;;;1.75;1.60;;;16.50;80.70;;;;;;4915487;29;20016;-93
2021/06/30 05:32:45;;;;;;;1.48;1.30;;;16.40;80.70;;;;;;4917061;29;20059;-95
2021/06/30 05:35:11;;;;;;;1.40;1.30;;;16.40;80.70;;;;;;4915566;29;20033;-94
2021/06/30 05:37:38;;;;;;;1.63;1.40;;;16.40;80.70;;;;;;4915480;29;20028;-95
2021/06/30 05:40:04;;;;;;;1.60;1.50;;;16.40;80.70;;;;;;4916477;29;20028;-94
2021/06/30 05:42:30;;;;;;;1.58;1.48;;;16.40;80.70;;;;;;4918478;29;20051;-94
2021/06/30 05:44:55;;;;;;;1.58;1.30;;;16.50;80.70;;;;;;4916468;29;20080;-94
2021/06/30 05:47:23;;;;;;;1.48;1.38;;;16.50;80.60;;;;;;4915719;29;20088;-95
2021/06/30 05:49:49;;;;;;;2.05;1.55;;;16.50;80.60;;;;;;4915953;29;20055;-95
2021/06/30 05:52:15;;;;;;;1.50;1.40;;;16.50;80.70;;;;;;4916765;29;20020;-94
2021/06/30 05:54:41;;;;;;;1.33;1.23;;;16.40;80.80;;;;;;4916787;29;20039;-96
2021/06/30 05:57:06;;;;;;;2.38;1.60;;;16.40;80.80;;;;;;4916999;29;20512;-92
2021/06/30 05:59:32;;;;;;;1.38;1.27;;;16.40;80.80;;;;;;4915414;29;20020;-92
2021/06/30 06:01:57;;;;;;;1.73;1.60;;;16.40;80.80;;;;;;4914789;29;20035;-90
2021/06/30 06:04:23;;;;;;;1.50;1.40;;;16.40;80.80;;;;;;4916090;29;20111;-92
2021/06/30 06:06:49;;;;;;;2.88;1.35;;;16.40;80.80;;;;;;4914421;29;20489;-92
2021/06/30 06:09:15;;;;;;;1.50;1.40;;;16.40;80.80;;;;;;4915536;29;20051;-92
2021/06/30 06:11:40;;;;;;;1.30;1.20;;;16.40;80.80;;;;;;4914296;29;20123;-92
2021/06/30 06:14:06;;;;;;;1.50;1.40;;;16.50;80.90;;;;;;4915631;29;20032;-91
2021/06/30 06:16:31;;;;;;;1.30;1.20;;;16.40;80.80;;;;;;4918562;29;20024;-92
2021/06/30 06:18:57;;;;;;;1.60;1.50;;;16.40;80.90;;;;;;4912358;29;20104;-90
2021/06/30 06:21:22;;;;;;;2.55;1.83;;;16.40;81.00;;;;;;4899329;29;20028;-91
2021/06/30 06:23:48;;;;;;;1.67;1.58;;;16.40;81.00;;;;;;4901466;29;20045;-89
2021/06/30 06:26:16;;;;;;;1.88;1.40;;;16.40;81.00;;;;;;4916637;29;20032;-90
2021/06/30 06:28:41;;;;;;;1.30;1.20;;;16.50;81.00;;;;;;4915819;29;20050;-93
2021/06/30 06:31:12;;;;;;;1.60;1.20;;;16.50;81.00;;;;;;4918399;29;20111;-89
2021/06/30 06:33:38;;;;;;;1.02;0.93;;;16.50;81.00;;;;;;4918387;29;20028;-90
2021/06/30 06:36:04;;;;;;;1.15;1.05;;;16.50;80.90;;;;;;4920051;29;20024;-90
2021/06/30 06:38:31;;;;;;;1.27;1.17;;;16.50;81.00;;;;;;4917502;29;20024;-89
2021/06/30 06:40:56;;;;;;;1.67;1.45;;;16.50;81.00;;;;;;4919608;29;20028;-90
2021/06/30 06:43:22;;;;;;;1.42;1.33;;;16.50;81.00;;;;;;4919255;29;20043;-90
2021/06/30 06:45:48;;;;;;;1.13;1.05;;;16.50;81.10;;;;;;4918704;29;20020;-91
2021/06/30 06:48:13;;;;;;;2.03;1.38;;;16.50;81.00;;;;;;4919898;29;20036;-92
2021/06/30 06:50:39;;;;;;;1.48;1.30;;;16.50;81.00;;;;;;4919844;29;20555;-91
2021/06/30 06:53:04;;;;;;;1.25;1.15;;;16.60;81.00;;;;;;4918276;29;20485;-92
2021/06/30 06:55:32;;;;;;;1.45;1.35;;;16.60;81.00;;;;;;4919520;29;20036;-91
2021/06/30 06:57:58;;;;;;;1.38;1.27;;;16.60;81.00;;;;;;4918571;29;20482;-90
2021/06/30 07:00:24;;;;;;;1.83;1.40;;;16.60;81.00;;;;;;4915838;29;20043;-90
2021/06/30 07:02:50;;;;;;;1.27;1.10;;;16.60;81.00;;;;;;4918766;29;20020;-90
2021/06/30 07:05:16;;;;;;;1.40;1.20;;;16.60;80.90;;;;;;4919156;29;20649;-91
2021/06/30 07:07:43;;;;;;;1.33;1.23;;;16.60;81.00;;;;;;4918619;29;20036;-90
2021/06/30 07:10:10;;;;;;;1.23;1.13;;;16.60;80.90;;;;;;4917904;29;20079;-90
2021/06/30 07:12:35;;;;;;;2.10;1.15;;;16.70;80.90;;;;;;4918426;29;20032;-90
2021/06/30 07:15:02;;;;;;;1.30;1.20;;;16.70;81.00;;;;;;4918061;29;20036;-91
2021/06/30 07:17:29;;;;;;;1.38;1.27;;;16.70;81.00;;;;;;4917991;29;20029;-91
2021/06/30 07:19:54;;;;;;;1.25;1.17;;;16.60;81.00;;;;;;4918999;29;20035;-90
2021/06/30 07:22:20;;;;;;;1.92;1.60;;;16.60;81.00;;;;;;4917818;29;20399;-90
2021/06/30 07:24:45;;;;;;;1.30;1.20;;;16.70;81.00;;;;;;4918635;29;20024;-90
2021/06/30 07:27:12;;;;;;;1.52;1.42;;;16.70;81.10;;;;;;4917656;29;20043;-89
2021/06/30 07:29:37;;;;;;;1.30;1.20;;;16.70;81.00;;;;;;4916532;29;20043;-88
2021/06/30 07:32:03;;;;;;;1.73;1.48;;;16.70;81.60;;;;;;4919243;29;20024;-89
2021/06/30 07:34:29;;;;;;;1.80;1.70;;;16.80;81.00;;;;;;4916882;29;20038;-90
2021/06/30 07:36:54;;;;;;;1.30;1.20;;;16.70;80.90;;;;;;4916155;29;20024;-88
2021/06/30 07:39:20;;;;;;;1.30;1.20;;;16.70;81.00;;;;;;4918118;29;20213;-90
2021/06/30 07:41:46;;;;;;;1.55;1.45;;;16.70;81.00;;;;;;4917229;29;20020;-92
2021/06/30 07:44:11;;;;;;;1.60;1.50;;;16.70;81.00;;;;;;4918616;29;20119;-92
2021/06/30 07:46:37;;;;;;;1.52;1.40;;;16.60;81.10;;;;;;4918950;29;20028;-92
2021/06/30 07:49:03;;;;;;;1.88;1.75;;;16.70;81.20;;;;;;4918808;29;20083;-93
2021/06/30 07:51:28;;;;;;;1.85;1.70;;;16.60;81.10;;;;;;4918497;29;20023;-92
2021/06/30 07:53:54;;;;;;;1.63;1.52;;;16.60;81.10;;;;;;4918350;29;20024;-92
2021/06/30 07:56:33;;;;;;;1.77;1.60;;;16.70;81.20;;;;;;4915320;29;20035;-92
2021/06/30 07:59:03;;;;;;;1.85;1.63;;;16.70;81.20;;;;;;4906373;29;20059;-92
2021/06/30 08:01:30;;;;;;;1.50;1.40;;;16.80;81.20;;;;;;4915890;29;20060;-91
2021/06/30 08:03:55;;;;;;;1.45;1.35;;;16.80;81.00;;;;;;4918450;29;20162;-91
2021/06/30 08:06:21;;;;;;;1.70;1.60;;;16.90;80.90;;;;;;4912344;29;20042;-90
2021/06/30 08:08:46;;;;;;;2.30;2.00;;;16.90;80.70;;;;;;4917254;29;20079;-90
2021/06/30 08:11:12;;;;;;;2.10;1.70;;;17.00;80.80;;;;;;4916757;29;20034;-92
2021/06/30 08:13:38;;;;;;;1.70;1.60;;;17.00;80.70;;;;;;4917222;29;20032;-92
2021/06/30 08:16:03;;;;;;;1.75;1.65;;;17.00;80.60;;;;;;4915935;29;20052;-91
2021/06/30 08:18:29;;;;;;;1.38;1.27;;;17.10;80.60;;;;;;4915179;29;20038;-91
2021/06/30 08:20:54;;;;;;;1.80;1.40;;;17.10;80.60;;;;;;4916674;29;20066;-90
2021/06/30 08:23:20;;;;;;;1.83;1.73;;;17.20;80.40;;;;;;4916471;29;20064;-90
2021/06/30 08:25:46;;;;;;;1.90;1.80;;;17.20;80.30;;;;;;4916874;29;20020;-91
2021/06/30 08:28:17;;;;;;;1.38;1.27;;;17.20;80.20;;;;;;4916430;29;20071;-92
2021/06/30 08:30:43;;;;;;;1.55;1.45;;;17.20;80.20;;;;;;4930463;29;20036;-92
2021/06/30 08:33:09;;;;;;;2.10;1.90;;;17.30;80.20;;;;;;4915127;29;20028;-92
2021/06/30 08:35:35;;;;;;;1.70;1.60;;;17.20;80.20;;;;;;4916659;29;20051;-91
2021/06/30 08:38:00;;;;;;;1.90;1.80;;;17.20;80.20;;;;;;4915637;29;20021;-92
2021/06/30 08:40:26;;;;;;;1.60;1.48;;;17.20;80.20;;;;;;4915980;29;20024;-92
2021/06/30 08:42:51;;;;;;;2.17;1.70;;;17.20;80.20;;;;;;4916094;29;20039;-89
2021/06/30 08:45:17;;;;;;;1.33;1.23;;;17.30;80.30;;;;;;4916354;29;20122;-89
2021/06/30 08:47:44;;;;;;;1.13;1.10;;;17.30;80.20;;;;;;4916570;29;20039;-88
2021/06/30 08:50:11;;;;;;;1.77;1.67;;;17.30;80.00;;;;;;4916485;29;20180;-90
2021/06/30 08:52:37;;;;;;;1.67;1.40;;;17.40;80.00;;;;;;4914232;29;20055;-91
2021/06/30 08:55:07;;;;;;;1.83;1.67;;;17.40;80.00;;;;;;4916120;29;20653;-88
2021/06/30 08:57:33;;;;;;;1.42;1.33;;;17.40;80.00;;;;;;4915237;29;20115;-90
2021/06/30 08:59:59;;;;;;;1.60;1.50;;;17.40;79.90;;;;;;4916180;29;20044;-90
2021/06/30 09:02:25;;;;;;;1.63;1.52;;;17.40;80.00;;;;;;4914591;29;20479;-90
2021/06/30 09:05:12;;;;;;;2.20;1.90;;;17.40;79.90;;;;;;4914942;29;20028;-89
2021/06/30 09:07:38;;;;;;;1.90;1.40;;;17.40;80.00;;;;;;4913503;29;20399;-88
2021/06/30 09:10:05;;;;;;;1.95;1.50;;;17.40;79.90;;;;;;4915916;29;20083;-91
2021/06/30 09:12:39;;;;;;;1.55;1.45;;;17.50;80.00;;;;;;4912308;29;20424;-89
2021/06/30 09:15:37;;;;;;;1.60;1.50;;;17.50;80.00;;;;;;4910431;29;20047;-88
2021/06/30 09:18:28;;;;;;;1.58;1.48;;;17.60;79.90;;;;;;4913274;29;20064;-89
2021/06/30 09:21:24;;;;;;;1.55;1.45;;;17.60;79.80;;;;;;4916291;29;20123;-89
2021/06/30 09:24:20;;;;;;;1.40;1.30;;;17.60;79.80;;;;;;4910050;29;20016;-89
2021/06/30 09:26:57;;;;;;;2.78;1.75;;;17.60;79.80;;;;;;4914889;29;20028;-88
2021/06/30 09:29:25;;;;;;;1.58;1.48;;;17.70;79.80;;;;;;4911301;29;20052;-89
2021/06/30 09:31:53;;;;;;;1.60;1.50;;;17.60;79.70;;;;;;4914310;29;20586;-89
2021/06/30 09:34:26;;;;;;;1.63;1.50;;;17.70;79.80;;;;;;4913900;29;20028;-88
2021/06/30 09:37:00;;;;;;;1.52;1.30;;;17.70;79.80;;;;;;4915439;29;20029;-89
2021/06/30 09:39:26;;;;;;;1.60;1.50;;;17.70;79.80;;;;;;4912403;29;20055;-88
2021/06/30 09:42:05;;;;;;;1.10;1.10;;;17.70;79.70;;;;;;4912701;29;20038;-89
2021/06/30 09:44:31;;;;;;;1.48;1.38;;;17.70;79.70;;;;;;4898657;29;20033;-89
2021/06/30 09:46:57;;;;;;;1.60;1.50;;;17.70;79.70;;;;;;4909155;29;20036;-88
2021/06/30 09:49:24;;;;;;;1.40;1.30;;;17.60;79.70;;;;;;4914864;29;20047;-89
2021/06/30 09:52:10;;;;;;;1.52;1.42;;;17.60;79.90;;;;;;4913106;29;20030;-91
2021/06/30 09:54:38;;;;;;;1.50;1.40;;;17.60;80.00;;;;;;4915234;29;20137;-89
2021/06/30 09:57:09;;;;;;;1.60;1.50;;;17.60;80.10;;;;;;4914197;29;20016;-92
2021/06/30 09:59:37;;;;;;;1.40;1.30;;;17.60;80.10;;;;;;4914981;29;20075;-93
2021/06/30 10:02:07;;;;;;;2.08;1.85;;;17.60;80.10;;;;;;4914835;29;20550;-92
2021/06/30 10:04:43;;;;;;;2.10;1.55;;;17.60;80.00;;;;;;4914951;29;20025;-93
2021/06/30 10:07:11;;;;;;;1.85;1.50;;;17.50;80.10;;;;;;4916383;29;20036;-92
2021/06/30 10:09:39;;;;;;;1.50;1.40;;;17.60;80.10;;;;;;4914813;29;20055;-93
2021/06/30 10:12:12;;;;;;;2.25;1.60;;;17.70;80.20;;;;;;4915109;29;20016;-94
2021/06/30 10:14:41;;;;;;;1.90;1.60;;;17.70;80.00;;;;;;4915839;29;20016;-92
2021/06/30 10:17:08;;;;;;;1.70;1.60;;;17.70;79.90;;;;;;4915699;29;20432;-93
2021/06/30 10:19:37;;;;;;;2.20;1.83;;;17.70;79.90;;;;;;4916125;29;20020;-92
2021/06/30 10:22:04;;;;;;;1.88;1.70;;;17.70;80.60;;;;;;4914304;29;20036;-92
2021/06/30 10:24:30;;;;;;;1.70;1.60;;;17.70;80.00;;;;;;4915651;29;20036;-93
2021/06/30 10:26:56;;;;;;;1.50;1.40;;;17.70;80.00;;;;;;4914756;29;20403;-93
2021/06/30 10:29:31;;;;;;;1.88;1.65;;;17.70;80.00;;;;;;4914776;29;20036;-93
2021/06/30 10:32:09;;;;;;;1.55;1.45;;;17.70;79.90;;;;;;4914375;29;20022;-93
2021/06/30 10:34:41;;;;;;;1.50;1.40;;;17.70;79.90;;;;;;4914600;29;20032;-94
2021/06/30 10:37:25;;;;;;;1.50;1.40;;;17.90;79.90;;;;;;4914943;29;20044;-93
2021/06/30 10:39:52;;;;;;;1.40;1.30;;;18.00;79.80;;;;;;4915950;29;20020;-93
2021/06/30 10:42:23;;;;;;;2.42;2.22;;;18.00;79.70;;;;;;4915794;29;20032;-93
2021/06/30 10:44:54;;;;;;;1.80;1.70;;;18.10;79.50;;;;;;4907923;29;20047;-93
2021/06/30 10:47:32;;;;;;;1.65;1.55;;;18.10;79.60;;;;;;4915315;29;20032;-94
2021/06/30 10:50:21;;;;;;;1.42;1.33;;;18.10;79.80;;;;;;4915239;29;20048;-95
2021/06/30 10:52:56;;;;;;;1.55;1.40;;;18.10;79.90;;;;;;4918527;29;20024;-93
2021/06/30 10:55:35;;;;;;;1.02;1.02;;;18.10;79.80;;;;;;4918363;29;20111;-93
2021/06/30 10:58:19;;;;;;;1.27;1.17;;;18.20;79.70;;;;;;4915654;29;20043;-93
2021/06/30 11:00:45;;;;;;;1.50;1.40;;;18.30;79.60;;;;;;4914508;29;20038;-92
2021/06/30 11:03:30;;;;;;;1.40;1.30;;;18.30;79.60;;;;;;4928355;29;20039;-90
2021/06/30 11:06:13;;;;;;;1.30;1.20;;;18.40;79.50;;;;;;4899576;29;20052;-91
2021/06/30 11:08:43;;;;;;;1.70;1.55;;;18.50;79.30;;;;;;4916557;29;20040;-91
2021/06/30 11:11:32;;;;;;;1.60;1.50;;;18.40;79.10;;;;;;4919079;29;20393;-90
2021/06/30 11:14:05;;;;;;;1.40;1.30;;;18.30;79.20;;;;;;4903845;29;20040;-96
2021/06/30 11:16:43;;;;;;;1.60;1.50;;;18.30;79.10;;;;;;4916900;29;20096;-96
2021/06/30 11:19:29;;;;;;;1.65;1.55;;;18.30;79.20;;;;;;4900882;29;20040;-96
2021/06/30 11:21:59;;;;;;;2.30;1.67;;;18.30;79.30;;;;;;4915670;29;20020;-96
2021/06/30 11:24:41;;;;;;;1.73;1.63;;;18.30;79.20;;;;;;4917874;29;20107;-95
2021/06/30 11:27:17;;;;;;;1.60;1.50;;;18.30;79.10;;;;;;4926872;29;20475;-96
2021/06/30 11:29:48;;;;;;;1.85;1.75;;;18.40;79.10;;;;;;4919019;29;20134;-96
2021/06/30 11:35:10;;;;;;;3.38;1.98;;;18.30;79.20;;;;;;4908168;29;20036;-96
2021/06/30 11:37:41;;;;;;;2.85;1.92;;;18.20;79.30;;;;;;4918254;29;20028;-96
2021/06/30 11:40:14;;;;;;;2.10;1.90;;;18.20;79.40;;;;;;4917304;29;20051;-95
2021/06/30 11:42:46;;;;;;;2.60;2.10;;;18.10;79.40;;;;;;4913124;29;20021;-94
2021/06/30 11:45:18;;;;;;;2.40;2.20;;;18.10;79.50;;;;;;4921977;29;20038;-95
2021/06/30 11:47:46;;;;;;;2.15;1.95;;;18.10;79.60;;;;;;4917794;29;20122;-94
2021/06/30 11:50:17;;;;;;;2.83;2.53;;;18.10;79.60;;;;;;4917678;29;20032;-92
2021/06/30 11:52:43;;;;;;;2.53;2.30;;;18.10;79.80;;;;;;4916509;29;20024;-89
2021/06/30 11:55:09;;;;;;;2.33;2.13;;;18.10;79.70;;;;;;4918646;29;20043;-94
2021/06/30 11:57:48;;;;;;;2.70;2.50;;;18.10;79.60;;;;;;4918320;29;20636;-96
2021/06/30 12:00:25;;;;;;;1.98;1.88;;;18.20;79.50;;;;;;4914531;29;20059;-96
2021/06/30 12:02:56;;;;;;;2.60;2.40;;;18.20;79.50;;;;;;4915353;29;20060;-96
2021/06/30 12:05:25;;;;;;;2.70;2.50;;;18.10;79.50;;;;;;4916823;29;20036;-95
2021/06/30 12:07:54;;;;;;;3.78;2.70;;;18.20;79.60;;;;;;4918473;29;20036;-96
2021/06/30 12:10:20;;;;;;;3.20;2.90;;;18.20;79.60;;;;;;4917137;29;20053;-96
2021/06/30 12:12:49;;;;;;;3.78;3.10;;;18.10;79.70;;;;;;4918226;29;20032;-96
2021/06/30 12:15:15;;;;;;;3.35;2.42;;;18.10;79.70;;;;;;4917065;29;20028;-96
2021/06/30 12:17:48;;;;;;;3.75;2.78;;;18.00;79.70;;;;;;4917294;29;20063;-94
2021/06/30 12:20:16;;;;;;;2.95;2.65;;;17.90;79.80;;;;;;4917122;29;20052;-95
2021/06/30 12:22:42;;;;;;;2.95;2.65;;;18.00;79.90;;;;;;4916343;29;20020;-94
2021/06/30 12:25:17;;;;;;;3.15;2.63;;;18.00;79.80;;;;;;4917731;29;20028;-94
2021/06/30 12:28:01;;;;;;;3.67;3.10;;;18.00;79.80;;;;;;4914811;29;20071;-95
2021/06/30 12:30:29;;;;;;;3.00;2.70;;;18.10;79.80;;;;;;4916698;29;20031;-92
2021/06/30 12:33:13;;;;;;;3.20;2.78;;;18.00;79.80;;;;;;4911741;29;20045;-93
2021/06/30 12:35:41;;;;;;;4.55;3.53;;;18.10;79.90;;;;;;4908944;29;20035;-96
2021/06/30 12:38:10;;;;;;;3.83;2.80;;;18.10;79.70;;;;;;4916459;29;20031;-96
2021/06/30 12:40:37;;;;;;;4.00;3.22;;;18.10;79.70;;;;;;4916845;29;20039;-96
2021/06/30 12:43:15;;;;;;;3.35;2.80;;;18.10;79.80;;;;;;4917576;29;20027;-94
2021/06/30 12:45:53;;;;;;;3.25;2.95;;;18.00;79.80;;;;;;4917854;29;20028;-95
2021/06/30 12:48:20;;;;;;;3.85;3.45;;;18.10;79.90;;;;;;4913566;29;20029;-96
2021/06/30 12:50:49;;;;;;;3.20;2.80;;;18.00;79.90;;;;;;4916271;29;20036;-96
2021/06/30 12:53:24;;;;;;;3.25;2.95;;;18.00;80.00;;;;;;4916342;29;20028;-94
2021/06/30 12:55:53;;;;;;;4.00;2.70;;;18.00;79.90;;;;;;4915734;29;20404;-95
2021/06/30 12:58:21;;;;;;;3.53;3.08;;;18.00;79.90;;;;;;4917677;29;20130;-96